sensor_id;sensor_type;location;lat;lon;timestamp;temperature;humidity
16118;DHT22;8163;50.118;5.342;2023-03-08T00:00:47;2.20;99.90
16118;DHT22;8163;50.118;5.342;2023-03-08T00:03:14;2.20;99.90
16118;DHT22;8163;50.118;5.342;2023-03-08T00:05:43;2.20;99.90
16118;DHT22;8163;50.118;5.342;2023-03-08T00:08:10;2.10;99.90
16118;DHT22;8163;50.118;5.342;2023-03-08T00:10:38;2.10;99.90
16118;DHT22;8163;50.118;5.342;2023-03-08T00:13:05;2.10;99.90
16118;DHT22;8163;50.118;5.342;2023-03-08T00:15:35;2.10;99.90
16118;DHT22;8163;50.118;5.342;2023-03-08T00:18:02;2.10;99.90
16118;DHT22;8163;50.118;5.342;2023-03-08T00:20:30;2.20;99.90
16118;DHT22;8163;50.118;5.342;2023-03-08T00:22:58;2.10;99.90
16118;DHT22;8163;50.118;5.342;2023-03-08T00:25:25;2.10;99.90
16118;DHT22;8163;50.118;5.342;2023-03-08T00:27:52;2.00;99.90
16118;DHT22;8163;50.118;5.342;2023-03-08T00:30:21;2.00;99.90
16118;DHT22;8163;50.118;5.342;2023-03-08T00:32:48;2.00;99.90
16118;DHT22;8163;50.118;5.342;2023-03-08T00:35:15;2.00;99.90
16118;DHT22;8163;50.118;5.342;2023-03-08T00:37:48;2.00;99.90
16118;DHT22;8163;50.118;5.342;2023-03-08T00:40:17;2.00;99.90
16118;DHT22;8163;50.118;5.342;2023-03-08T00:42:44;2.00;99.90
16118;DHT22;8163;50.118;5.342;2023-03-08T00:45:11;2.00;99.90
16118;DHT22;8163;50.118;5.342;2023-03-08T00:47:38;1.90;99.90
16118;DHT22;8163;50.118;5.342;2023-03-08T00:50:06;2.00;99.90
16118;DHT22;8163;50.118;5.342;2023-03-08T00:52:34;2.00;99.90
16118;DHT22;8163;50.118;5.342;2023-03-08T00:55:02;2.00;99.90
16118;DHT22;8163;50.118;5.342;2023-03-08T00:57:31;1.90;99.90
16118;DHT22;8163;50.118;5.342;2023-03-08T00:59:58;1.90;99.90
16118;DHT22;8163;50.118;5.342;2023-03-08T01:02:25;1.90;99.90
16118;DHT22;8163;50.118;5.342;2023-03-08T01:04:52;1.90;99.90
16118;DHT22;8163;50.118;5.342;2023-03-08T01:07:20;1.90;99.90
16118;DHT22;8163;50.118;5.342;2023-03-08T01:09:53;1.90;99.90
16118;DHT22;8163;50.118;5.342;2023-03-08T01:12:22;1.90;99.90
16118;DHT22;8163;50.118;5.342;2023-03-08T01:14:51;1.90;99.90
16118;DHT22;8163;50.118;5.342;2023-03-08T01:17:18;1.90;99.90
16118;DHT22;8163;50.118;5.342;2023-03-08T01:19:45;1.90;99.90
16118;DHT22;8163;50.118;5.342;2023-03-08T01:22:12;1.80;99.90
16118;DHT22;8163;50.118;5.342;2023-03-08T01:24:43;1.90;99.90
16118;DHT22;8163;50.118;5.342;2023-03-08T01:27:10;1.90;99.90
16118;DHT22;8163;50.118;5.342;2023-03-08T01:29:37;1.90;99.90
16118;DHT22;8163;50.118;5.342;2023-03-08T01:32:06;1.90;99.90
16118;DHT22;8163;50.118;5.342;2023-03-08T01:34:34;1.90;99.90
16118;DHT22;8163;50.118;5.342;2023-03-08T01:37:02;1.90;99.90
16118;DHT22;8163;50.118;5.342;2023-03-08T01:39:29;1.90;99.90
16118;DHT22;8163;50.118;5.342;2023-03-08T01:41:57;1.90;99.90
16118;DHT22;8163;50.118;5.342;2023-03-08T01:44:24;1.80;99.90
16118;DHT22;8163;50.118;5.342;2023-03-08T01:46:51;1.90;99.90
16118;DHT22;8163;50.118;5.342;2023-03-08T01:49:22;1.90;99.90
16118;DHT22;8163;50.118;5.342;2023-03-08T01:51:55;1.80;99.90
16118;DHT22;8163;50.118;5.342;2023-03-08T01:54:30;1.80;99.90
16118;DHT22;8163;50.118;5.342;2023-03-08T01:57:01;1.80;99.90
16118;DHT22;8163;50.118;5.342;2023-03-08T01:59:29;1.80;99.90
16118;DHT22;8163;50.118;5.342;2023-03-08T02:01:58;1.80;99.90
16118;DHT22;8163;50.118;5.342;2023-03-08T02:04:26;1.90;99.90
16118;DHT22;8163;50.118;5.342;2023-03-08T02:06:53;1.90;99.90
16118;DHT22;8163;50.118;5.342;2023-03-08T02:09:20;1.90;99.90
16118;DHT22;8163;50.118;5.342;2023-03-08T02:11:47;1.80;99.90
16118;DHT22;8163;50.118;5.342;2023-03-08T02:14:15;1.80;99.90
16118;DHT22;8163;50.118;5.342;2023-03-08T02:16:42;1.90;99.90
16118;DHT22;8163;50.118;5.342;2023-03-08T02:19:19;1.90;99.90
16118;DHT22;8163;50.118;5.342;2023-03-08T02:21:49;1.80;99.90
16118;DHT22;8163;50.118;5.342;2023-03-08T02:24:26;1.80;99.90
16118;DHT22;8163;50.118;5.342;2023-03-08T02:27:00;1.80;99.90
16118;DHT22;8163;50.118;5.342;2023-03-08T02:29:27;1.80;99.90
16118;DHT22;8163;50.118;5.342;2023-03-08T02:31:54;1.80;99.90
16118;DHT22;8163;50.118;5.342;2023-03-08T02:34:21;1.80;99.90
16118;DHT22;8163;50.118;5.342;2023-03-08T02:36:48;1.80;99.90
16118;DHT22;8163;50.118;5.342;2023-03-08T02:39:15;1.70;99.90
16118;DHT22;8163;50.118;5.342;2023-03-08T02:41:45;1.70;99.90
16118;DHT22;8163;50.118;5.342;2023-03-08T02:44:12;1.70;99.90
16118;DHT22;8163;50.118;5.342;2023-03-08T02:46:39;1.70;99.90
16118;DHT22;8163;50.118;5.342;2023-03-08T02:49:07;1.70;99.90
16118;DHT22;8163;50.118;5.342;2023-03-08T02:51:34;1.70;99.90
16118;DHT22;8163;50.118;5.342;2023-03-08T02:54:01;1.70;99.90
16118;DHT22;8163;50.118;5.342;2023-03-08T02:56:29;1.70;99.90
16118;DHT22;8163;50.118;5.342;2023-03-08T02:58:57;1.70;99.90
16118;DHT22;8163;50.118;5.342;2023-03-08T03:01:24;1.70;99.90
16118;DHT22;8163;50.118;5.342;2023-03-08T03:03:52;1.70;99.90
16118;DHT22;8163;50.118;5.342;2023-03-08T03:06:20;1.60;99.90
16118;DHT22;8163;50.118;5.342;2023-03-08T03:08:48;1.60;99.90
16118;DHT22;8163;50.118;5.342;2023-03-08T03:11:16;1.60;99.90
16118;DHT22;8163;50.118;5.342;2023-03-08T03:13:44;1.70;99.90
16118;DHT22;8163;50.118;5.342;2023-03-08T03:16:14;1.70;99.90
16118;DHT22;8163;50.118;5.342;2023-03-08T03:18:41;1.70;99.90
16118;DHT22;8163;50.118;5.342;2023-03-08T03:21:10;1.60;99.90
16118;DHT22;8163;50.118;5.342;2023-03-08T03:23:38;1.60;99.90
16118;DHT22;8163;50.118;5.342;2023-03-08T03:26:06;1.60;99.90
16118;DHT22;8163;50.118;5.342;2023-03-08T03:28:35;1.60;99.90
16118;DHT22;8163;50.118;5.342;2023-03-08T03:31:06;1.60;99.90
16118;DHT22;8163;50.118;5.342;2023-03-08T03:33:34;1.50;99.90
16118;DHT22;8163;50.118;5.342;2023-03-08T03:36:01;1.50;99.90
16118;DHT22;8163;50.118;5.342;2023-03-08T03:38:28;1.50;99.90
16118;DHT22;8163;50.118;5.342;2023-03-08T03:41:00;1.50;99.90
16118;DHT22;8163;50.118;5.342;2023-03-08T03:43:27;1.50;99.90
16118;DHT22;8163;50.118;5.342;2023-03-08T03:45:55;1.50;99.90
16118;DHT22;8163;50.118;5.342;2023-03-08T03:48:23;1.50;99.90
16118;DHT22;8163;50.118;5.342;2023-03-08T03:50:56;1.40;99.90
16118;DHT22;8163;50.118;5.342;2023-03-08T03:53:24;1.50;99.90
16118;DHT22;8163;50.118;5.342;2023-03-08T03:55:51;1.50;99.90
16118;DHT22;8163;50.118;5.342;2023-03-08T03:58:18;1.50;99.90
16118;DHT22;8163;50.118;5.342;2023-03-08T04:00:45;1.40;99.90
16118;DHT22;8163;50.118;5.342;2023-03-08T04:03:12;1.50;99.90
16118;DHT22;8163;50.118;5.342;2023-03-08T04:05:39;1.40;99.90
16118;DHT22;8163;50.118;5.342;2023-03-08T04:08:07;1.40;99.90
16118;DHT22;8163;50.118;5.342;2023-03-08T04:10:35;1.40;99.90
16118;DHT22;8163;50.118;5.342;2023-03-08T04:13:02;1.40;99.90
16118;DHT22;8163;50.118;5.342;2023-03-08T04:15:31;1.40;99.90
16118;DHT22;8163;50.118;5.342;2023-03-08T04:17:58;1.40;99.90
16118;DHT22;8163;50.118;5.342;2023-03-08T04:20:27;1.40;99.90
16118;DHT22;8163;50.118;5.342;2023-03-08T04:22:54;1.40;99.90
16118;DHT22;8163;50.118;5.342;2023-03-08T04:25:22;1.40;99.90
16118;DHT22;8163;50.118;5.342;2023-03-08T04:27:49;1.30;99.90
16118;DHT22;8163;50.118;5.342;2023-03-08T04:30:16;1.30;99.90
16118;DHT22;8163;50.118;5.342;2023-03-08T04:32:44;1.30;99.90
16118;DHT22;8163;50.118;5.342;2023-03-08T04:35:10;1.30;99.90
16118;DHT22;8163;50.118;5.342;2023-03-08T04:37:37;1.20;99.90
16118;DHT22;8163;50.118;5.342;2023-03-08T04:40:07;1.20;99.90
16118;DHT22;8163;50.118;5.342;2023-03-08T04:42:35;1.20;99.90
16118;DHT22;8163;50.118;5.342;2023-03-08T04:45:06;1.20;99.90
16118;DHT22;8163;50.118;5.342;2023-03-08T04:47:34;1.20;99.90
16118;DHT22;8163;50.118;5.342;2023-03-08T04:50:02;1.20;99.90
16118;DHT22;8163;50.118;5.342;2023-03-08T04:52:29;1.20;99.90
16118;DHT22;8163;50.118;5.342;2023-03-08T04:54:56;1.20;99.90
16118;DHT22;8163;50.118;5.342;2023-03-08T04:57:23;1.20;99.90
16118;DHT22;8163;50.118;5.342;2023-03-08T04:59:52;1.20;99.90
16118;DHT22;8163;50.118;5.342;2023-03-08T05:02:20;1.20;99.90
16118;DHT22;8163;50.118;5.342;2023-03-08T05:04:47;1.20;99.90
16118;DHT22;8163;50.118;5.342;2023-03-08T05:07:14;1.20;99.90
16118;DHT22;8163;50.118;5.342;2023-03-08T05:09:41;1.20;99.90
16118;DHT22;8163;50.118;5.342;2023-03-08T05:12:08;1.20;99.90
16118;DHT22;8163;50.118;5.342;2023-03-08T05:14:35;1.20;99.90
16118;DHT22;8163;50.118;5.342;2023-03-08T05:17:04;1.10;99.90
16118;DHT22;8163;50.118;5.342;2023-03-08T05:19:31;1.10;99.90
16118;DHT22;8163;50.118;5.342;2023-03-08T05:21:59;1.10;99.90
16118;DHT22;8163;50.118;5.342;2023-03-08T05:24:27;1.10;99.90
16118;DHT22;8163;50.118;5.342;2023-03-08T05:26:54;1.10;99.90
16118;DHT22;8163;50.118;5.342;2023-03-08T05:29:23;1.10;99.90
16118;DHT22;8163;50.118;5.342;2023-03-08T05:31:50;1.10;99.90
16118;DHT22;8163;50.118;5.342;2023-03-08T05:34:21;1.10;99.90
16118;DHT22;8163;50.118;5.342;2023-03-08T05:36:49;1.10;99.90
16118;DHT22;8163;50.118;5.342;2023-03-08T05:39:18;1.10;99.90
16118;DHT22;8163;50.118;5.342;2023-03-08T05:41:47;1.10;99.90
16118;DHT22;8163;50.118;5.342;2023-03-08T05:44:14;1.10;99.90
16118;DHT22;8163;50.118;5.342;2023-03-08T05:46:41;1.00;99.90
16118;DHT22;8163;50.118;5.342;2023-03-08T05:49:09;1.00;99.90
16118;DHT22;8163;50.118;5.342;2023-03-08T05:51:37;1.00;99.90
16118;DHT22;8163;50.118;5.342;2023-03-08T05:54:05;1.00;99.90
16118;DHT22;8163;50.118;5.342;2023-03-08T05:56:33;1.00;99.90
16118;DHT22;8163;50.118;5.342;2023-03-08T05:59:00;0.90;99.90
16118;DHT22;8163;50.118;5.342;2023-03-08T06:01:28;0.90;99.90
16118;DHT22;8163;50.118;5.342;2023-03-08T06:03:56;0.90;99.90
16118;DHT22;8163;50.118;5.342;2023-03-08T06:06:24;0.90;99.90
16118;DHT22;8163;50.118;5.342;2023-03-08T06:08:55;0.90;99.90
16118;DHT22;8163;50.118;5.342;2023-03-08T06:11:23;0.90;99.90
16118;DHT22;8163;50.118;5.342;2023-03-08T06:13:51;0.90;99.90
16118;DHT22;8163;50.118;5.342;2023-03-08T06:16:19;0.90;99.90
16118;DHT22;8163;50.118;5.342;2023-03-08T06:18:46;1.00;99.90
16118;DHT22;8163;50.118;5.342;2023-03-08T06:21:15;0.90;99.90
16118;DHT22;8163;50.118;5.342;2023-03-08T06:23:43;0.90;99.90
16118;DHT22;8163;50.118;5.342;2023-03-08T06:26:13;0.90;99.90
16118;DHT22;8163;50.118;5.342;2023-03-08T06:31:11;1.00;99.90
16118;DHT22;8163;50.118;5.342;2023-03-08T06:33:39;1.00;99.90
16118;DHT22;8163;50.118;5.342;2023-03-08T06:36:09;1.00;99.90
16118;DHT22;8163;50.118;5.342;2023-03-08T06:38:39;1.10;99.90
16118;DHT22;8163;50.118;5.342;2023-03-08T06:41:07;1.10;99.90
16118;DHT22;8163;50.118;5.342;2023-03-08T06:43:36;1.10;99.90
16118;DHT22;8163;50.118;5.342;2023-03-08T06:46:04;1.10;99.90
16118;DHT22;8163;50.118;5.342;2023-03-08T06:48:32;1.10;99.90
16118;DHT22;8163;50.118;5.342;2023-03-08T06:51:03;1.10;99.90
16118;DHT22;8163;50.118;5.342;2023-03-08T06:53:30;1.10;99.90
16118;DHT22;8163;50.118;5.342;2023-03-08T06:55:57;1.10;99.90
16118;DHT22;8163;50.118;5.342;2023-03-08T06:58:27;1.10;99.90
16118;DHT22;8163;50.118;5.342;2023-03-08T07:00:58;1.10;99.90
16118;DHT22;8163;50.118;5.342;2023-03-08T07:03:25;1.10;99.90
16118;DHT22;8163;50.118;5.342;2023-03-08T07:05:56;1.10;99.90
16118;DHT22;8163;50.118;5.342;2023-03-08T07:08:23;1.20;99.90
16118;DHT22;8163;50.118;5.342;2023-03-08T07:10:50;1.20;99.90
16118;DHT22;8163;50.118;5.342;2023-03-08T07:13:17;1.20;99.90
16118;DHT22;8163;50.118;5.342;2023-03-08T07:15:44;1.20;99.90
16118;DHT22;8163;50.118;5.342;2023-03-08T07:18:13;1.30;99.90
16118;DHT22;8163;50.118;5.342;2023-03-08T07:20:40;1.30;99.90
16118;DHT22;8163;50.118;5.342;2023-03-08T07:23:06;1.30;99.90
16118;DHT22;8163;50.118;5.342;2023-03-08T07:25:33;1.40;99.90
16118;DHT22;8163;50.118;5.342;2023-03-08T07:28:03;1.30;99.90
16118;DHT22;8163;50.118;5.342;2023-03-08T07:30:30;1.40;99.90
16118;DHT22;8163;50.118;5.342;2023-03-08T07:32:58;1.40;99.90
16118;DHT22;8163;50.118;5.342;2023-03-08T07:35:26;1.50;99.90
16118;DHT22;8163;50.118;5.342;2023-03-08T07:37:54;1.50;99.90
16118;DHT22;8163;50.118;5.342;2023-03-08T07:40:21;1.50;99.90
16118;DHT22;8163;50.118;5.342;2023-03-08T07:42:48;1.60;99.90
16118;DHT22;8163;50.118;5.342;2023-03-08T07:45:16;1.60;99.90
16118;DHT22;8163;50.118;5.342;2023-03-08T07:47:43;1.60;99.90
16118;DHT22;8163;50.118;5.342;2023-03-08T07:50:10;1.60;99.90
16118;DHT22;8163;50.118;5.342;2023-03-08T07:52:39;1.60;99.90
16118;DHT22;8163;50.118;5.342;2023-03-08T07:55:07;1.50;99.90
16118;DHT22;8163;50.118;5.342;2023-03-08T07:57:36;1.60;99.90
16118;DHT22;8163;50.118;5.342;2023-03-08T08:00:04;1.60;99.90
16118;DHT22;8163;50.118;5.342;2023-03-08T08:02:33;1.60;99.90
16118;DHT22;8163;50.118;5.342;2023-03-08T08:05:00;1.70;99.90
16118;DHT22;8163;50.118;5.342;2023-03-08T08:07:27;1.70;99.90
16118;DHT22;8163;50.118;5.342;2023-03-08T08:09:55;1.70;99.90
16118;DHT22;8163;50.118;5.342;2023-03-08T08:12:22;1.80;99.90
16118;DHT22;8163;50.118;5.342;2023-03-08T08:14:50;1.80;99.90
16118;DHT22;8163;50.118;5.342;2023-03-08T08:17:17;1.90;99.90
16118;DHT22;8163;50.118;5.342;2023-03-08T08:19:44;1.90;99.90
16118;DHT22;8163;50.118;5.342;2023-03-08T08:22:11;1.90;99.90
16118;DHT22;8163;50.118;5.342;2023-03-08T08:24:39;1.90;99.90
16118;DHT22;8163;50.118;5.342;2023-03-08T08:27:08;1.90;99.90
16118;DHT22;8163;50.118;5.342;2023-03-08T08:29:36;1.90;99.90
16118;DHT22;8163;50.118;5.342;2023-03-08T08:32:03;1.90;99.90
16118;DHT22;8163;50.118;5.342;2023-03-08T08:34:30;1.90;99.90
16118;DHT22;8163;50.118;5.342;2023-03-08T08:36:57;1.90;99.90
16118;DHT22;8163;50.118;5.342;2023-03-08T08:39:24;2.00;99.90
16118;DHT22;8163;50.118;5.342;2023-03-08T08:41:51;2.00;99.90
16118;DHT22;8163;50.118;5.342;2023-03-08T08:44:19;2.00;99.90
16118;DHT22;8163;50.118;5.342;2023-03-08T08:46:46;2.00;99.90
16118;DHT22;8163;50.118;5.342;2023-03-08T08:49:13;2.10;99.90
16118;DHT22;8163;50.118;5.342;2023-03-08T08:51:40;2.00;99.90
16118;DHT22;8163;50.118;5.342;2023-03-08T08:54:07;2.00;99.90
16118;DHT22;8163;50.118;5.342;2023-03-08T08:56:34;2.00;99.90
16118;DHT22;8163;50.118;5.342;2023-03-08T08:59:08;2.00;99.90
16118;DHT22;8163;50.118;5.342;2023-03-08T09:01:38;2.00;99.90
16118;DHT22;8163;50.118;5.342;2023-03-08T09:04:08;2.00;99.90
16118;DHT22;8163;50.118;5.342;2023-03-08T09:06:35;2.00;99.90
16118;DHT22;8163;50.118;5.342;2023-03-08T09:09:04;2.00;99.90
16118;DHT22;8163;50.118;5.342;2023-03-08T09:11:31;2.10;99.90
16118;DHT22;8163;50.118;5.342;2023-03-08T09:14:00;2.10;99.90
16118;DHT22;8163;50.118;5.342;2023-03-08T09:16:29;2.10;99.90
16118;DHT22;8163;50.118;5.342;2023-03-08T09:18:59;2.10;99.90
16118;DHT22;8163;50.118;5.342;2023-03-08T09:21:28;2.20;99.90
16118;DHT22;8163;50.118;5.342;2023-03-08T09:23:59;2.20;99.90
16118;DHT22;8163;50.118;5.342;2023-03-08T09:26:28;2.20;99.90
16118;DHT22;8163;50.118;5.342;2023-03-08T09:28:56;2.20;99.90
16118;DHT22;8163;50.118;5.342;2023-03-08T09:31:24;2.30;99.90
16118;DHT22;8163;50.118;5.342;2023-03-08T09:33:51;2.40;99.90
16118;DHT22;8163;50.118;5.342;2023-03-08T09:36:20;2.50;99.90
16118;DHT22;8163;50.118;5.342;2023-03-08T09:38:47;2.50;99.90
16118;DHT22;8163;50.118;5.342;2023-03-08T09:41:29;2.70;99.90
16118;DHT22;8163;50.118;5.342;2023-03-08T09:44:11;2.70;99.90
16118;DHT22;8163;50.118;5.342;2023-03-08T09:46:43;2.90;99.90
16118;DHT22;8163;50.118;5.342;2023-03-08T09:49:16;3.10;99.90
16118;DHT22;8163;50.118;5.342;2023-03-08T09:51:49;3.10;99.90
16118;DHT22;8163;50.118;5.342;2023-03-08T09:54:22;3.10;99.90
16118;DHT22;8163;50.118;5.342;2023-03-08T09:56:51;3.00;99.90
16118;DHT22;8163;50.118;5.342;2023-03-08T09:59:24;3.00;99.90
16118;DHT22;8163;50.118;5.342;2023-03-08T10:01:59;3.00;99.90
16118;DHT22;8163;50.118;5.342;2023-03-08T10:04:37;3.00;99.90
16118;DHT22;8163;50.118;5.342;2023-03-08T10:07:20;3.00;99.90
16118;DHT22;8163;50.118;5.342;2023-03-08T10:09:56;3.10;99.90
16118;DHT22;8163;50.118;5.342;2023-03-08T10:12:32;3.10;99.90
16118;DHT22;8163;50.118;5.342;2023-03-08T10:15:06;3.10;99.90
16118;DHT22;8163;50.118;5.342;2023-03-08T10:17:39;3.10;99.90
16118;DHT22;8163;50.118;5.342;2023-03-08T10:20:17;3.10;99.90
16118;DHT22;8163;50.118;5.342;2023-03-08T10:22:50;3.10;99.90
16118;DHT22;8163;50.118;5.342;2023-03-08T10:25:23;3.20;99.90
16118;DHT22;8163;50.118;5.342;2023-03-08T10:27:53;3.10;99.90
16118;DHT22;8163;50.118;5.342;2023-03-08T10:30:23;3.10;99.90
16118;DHT22;8163;50.118;5.342;2023-03-08T10:32:54;3.20;99.90
16118;DHT22;8163;50.118;5.342;2023-03-08T10:35:34;3.20;99.90
16118;DHT22;8163;50.118;5.342;2023-03-08T10:38:04;3.30;99.90
16118;DHT22;8163;50.118;5.342;2023-03-08T10:40:31;3.30;99.90
16118;DHT22;8163;50.118;5.342;2023-03-08T10:43:02;3.30;99.90
16118;DHT22;8163;50.118;5.342;2023-03-08T10:45:30;3.50;99.90
16118;DHT22;8163;50.118;5.342;2023-03-08T10:47:59;3.50;99.90
16118;DHT22;8163;50.118;5.342;2023-03-08T10:50:28;3.50;99.90
16118;DHT22;8163;50.118;5.342;2023-03-08T10:53:08;3.60;99.90
16118;DHT22;8163;50.118;5.342;2023-03-08T10:55:43;3.70;99.90
16118;DHT22;8163;50.118;5.342;2023-03-08T10:58:29;3.80;99.90
16118;DHT22;8163;50.118;5.342;2023-03-08T11:00:59;3.90;99.90
16118;DHT22;8163;50.118;5.342;2023-03-08T11:03:26;3.90;99.90
16118;DHT22;8163;50.118;5.342;2023-03-08T11:05:56;3.90;99.90
16118;DHT22;8163;50.118;5.342;2023-03-08T11:08:28;4.00;99.90
16118;DHT22;8163;50.118;5.342;2023-03-08T11:11:16;4.10;99.90
16118;DHT22;8163;50.118;5.342;2023-03-08T11:13:45;4.20;99.90
16118;DHT22;8163;50.118;5.342;2023-03-08T11:16:54;4.30;99.90
16118;DHT22;8163;50.118;5.342;2023-03-08T11:19:35;4.30;99.90
16118;DHT22;8163;50.118;5.342;2023-03-08T11:22:15;4.30;99.90
16118;DHT22;8163;50.118;5.342;2023-03-08T11:25:04;4.40;99.90
16118;DHT22;8163;50.118;5.342;2023-03-08T11:27:44;4.50;99.90
16118;DHT22;8163;50.118;5.342;2023-03-08T11:30:20;4.60;99.90
16118;DHT22;8163;50.118;5.342;2023-03-08T11:32:59;4.70;99.90
16118;DHT22;8163;50.118;5.342;2023-03-08T11:35:32;4.70;99.90
16118;DHT22;8163;50.118;5.342;2023-03-08T11:38:04;4.80;99.90
16118;DHT22;8163;50.118;5.342;2023-03-08T11:40:46;4.80;99.90
16118;DHT22;8163;50.118;5.342;2023-03-08T11:43:28;4.90;99.90
16118;DHT22;8163;50.118;5.342;2023-03-08T11:46:03;5.10;99.90
16118;DHT22;8163;50.118;5.342;2023-03-08T11:48:58;5.10;99.90
16118;DHT22;8163;50.118;5.342;2023-03-08T11:51:35;5.20;99.90
16118;DHT22;8163;50.118;5.342;2023-03-08T11:54:11;5.50;99.90
16118;DHT22;8163;50.118;5.342;2023-03-08T11:56:50;5.70;99.90
16118;DHT22;8163;50.118;5.342;2023-03-08T11:59:27;5.80;99.90
16118;DHT22;8163;50.118;5.342;2023-03-08T12:01:59;5.90;99.90
16118;DHT22;8163;50.118;5.342;2023-03-08T12:04:31;6.00;99.90
16118;DHT22;8163;50.118;5.342;2023-03-08T12:07:06;6.20;99.90
16118;DHT22;8163;50.118;5.342;2023-03-08T12:09:39;6.30;99.90
16118;DHT22;8163;50.118;5.342;2023-03-08T12:12:12;6.40;99.90
16118;DHT22;8163;50.118;5.342;2023-03-08T12:14:48;6.70;99.90
16118;DHT22;8163;50.118;5.342;2023-03-08T12:17:19;6.80;99.90
16118;DHT22;8163;50.118;5.342;2023-03-08T12:19:49;6.80;99.90
16118;DHT22;8163;50.118;5.342;2023-03-08T12:22:30;6.80;99.90
16118;DHT22;8163;50.118;5.342;2023-03-08T12:25:06;6.80;99.90
16118;DHT22;8163;50.118;5.342;2023-03-08T12:27:39;6.80;99.90
16118;DHT22;8163;50.118;5.342;2023-03-08T12:30:16;6.80;99.90
16118;DHT22;8163;50.118;5.342;2023-03-08T12:32:47;6.80;99.90
16118;DHT22;8163;50.118;5.342;2023-03-08T12:35:26;6.80;99.90
16118;DHT22;8163;50.118;5.342;2023-03-08T12:37:54;6.80;99.90
16118;DHT22;8163;50.118;5.342;2023-03-08T12:40:37;6.80;99.90
16118;DHT22;8163;50.118;5.342;2023-03-08T12:43:08;6.80;99.90
16118;DHT22;8163;50.118;5.342;2023-03-08T12:45:37;6.80;99.90
16118;DHT22;8163;50.118;5.342;2023-03-08T12:48:17;7.00;99.90
16118;DHT22;8163;50.118;5.342;2023-03-08T12:50:55;7.20;99.90
16118;DHT22;8163;50.118;5.342;2023-03-08T12:53:28;7.30;99.90
16118;DHT22;8163;50.118;5.342;2023-03-08T12:56:01;7.40;99.90
16118;DHT22;8163;50.118;5.342;2023-03-08T12:58:32;7.50;99.90
16118;DHT22;8163;50.118;5.342;2023-03-08T13:01:03;7.60;99.90
16118;DHT22;8163;50.118;5.342;2023-03-08T13:03:36;7.60;99.90
16118;DHT22;8163;50.118;5.342;2023-03-08T13:06:53;7.60;99.90
16118;DHT22;8163;50.118;5.342;2023-03-08T13:09:23;7.70;99.90
16118;DHT22;8163;50.118;5.342;2023-03-08T13:11:57;7.80;99.90
16118;DHT22;8163;50.118;5.342;2023-03-08T13:14:40;7.80;99.90
16118;DHT22;8163;50.118;5.342;2023-03-08T13:17:46;7.80;99.90
16118;DHT22;8163;50.118;5.342;2023-03-08T13:20:17;7.80;99.90
16118;DHT22;8163;50.118;5.342;2023-03-08T13:22:53;7.90;99.90
16118;DHT22;8163;50.118;5.342;2023-03-08T13:25:36;8.00;99.90
16118;DHT22;8163;50.118;5.342;2023-03-08T13:28:08;8.10;99.90
16118;DHT22;8163;50.118;5.342;2023-03-08T13:30:42;8.20;99.90
16118;DHT22;8163;50.118;5.342;2023-03-08T13:33:13;8.40;99.90
16118;DHT22;8163;50.118;5.342;2023-03-08T13:35:41;8.60;99.90
16118;DHT22;8163;50.118;5.342;2023-03-08T13:38:20;8.60;99.90
16118;DHT22;8163;50.118;5.342;2023-03-08T13:40:50;8.60;99.90
16118;DHT22;8163;50.118;5.342;2023-03-08T13:43:17;8.70;99.90
16118;DHT22;8163;50.118;5.342;2023-03-08T13:45:48;8.80;99.90
16118;DHT22;8163;50.118;5.342;2023-03-08T13:48:15;8.80;99.90
16118;DHT22;8163;50.118;5.342;2023-03-08T13:50:45;8.80;99.90
16118;DHT22;8163;50.118;5.342;2023-03-08T13:53:16;8.80;99.90
16118;DHT22;8163;50.118;5.342;2023-03-08T13:55:45;8.80;99.90
16118;DHT22;8163;50.118;5.342;2023-03-08T13:58:27;8.80;99.90
16118;DHT22;8163;50.118;5.342;2023-03-08T14:35:53;8.70;99.90
16118;DHT22;8163;50.118;5.342;2023-03-08T14:38:23;8.80;99.90
16118;DHT22;8163;50.118;5.342;2023-03-08T14:40:51;8.90;99.90
16118;DHT22;8163;50.118;5.342;2023-03-08T14:43:20;8.80;99.90
16118;DHT22;8163;50.118;5.342;2023-03-08T14:45:53;8.70;99.90
16118;DHT22;8163;50.118;5.342;2023-03-08T14:48:23;8.70;99.90
16118;DHT22;8163;50.118;5.342;2023-03-08T14:50:55;8.70;99.90
16118;DHT22;8163;50.118;5.342;2023-03-08T14:53:25;8.60;99.90
16118;DHT22;8163;50.118;5.342;2023-03-08T14:55:54;8.60;99.90
16118;DHT22;8163;50.118;5.342;2023-03-08T14:58:24;8.70;99.90
16118;DHT22;8163;50.118;5.342;2023-03-08T15:00:54;8.70;99.90
16118;DHT22;8163;50.118;5.342;2023-03-08T15:03:21;8.60;99.90
16118;DHT22;8163;50.118;5.342;2023-03-08T15:05:48;8.70;99.90
16118;DHT22;8163;50.118;5.342;2023-03-08T15:08:17;8.70;99.90
16118;DHT22;8163;50.118;5.342;2023-03-08T15:10:44;8.70;99.90
16118;DHT22;8163;50.118;5.342;2023-03-08T15:13:13;8.70;99.90
16118;DHT22;8163;50.118;5.342;2023-03-08T15:15:41;8.70;99.90
16118;DHT22;8163;50.118;5.342;2023-03-08T15:18:08;8.70;99.90
16118;DHT22;8163;50.118;5.342;2023-03-08T15:20:37;8.60;99.90
16118;DHT22;8163;50.118;5.342;2023-03-08T15:23:12;8.70;99.90
16118;DHT22;8163;50.118;5.342;2023-03-08T15:25:43;8.60;99.90
16118;DHT22;8163;50.118;5.342;2023-03-08T15:28:13;8.60;99.90
16118;DHT22;8163;50.118;5.342;2023-03-08T15:30:40;8.60;99.90
16118;DHT22;8163;50.118;5.342;2023-03-08T15:33:08;8.60;99.90
16118;DHT22;8163;50.118;5.342;2023-03-08T15:35:35;8.60;99.90
16118;DHT22;8163;50.118;5.342;2023-03-08T15:38:02;8.60;99.90
16118;DHT22;8163;50.118;5.342;2023-03-08T15:40:32;8.50;99.90
16118;DHT22;8163;50.118;5.342;2023-03-08T15:43:01;8.50;99.90
16118;DHT22;8163;50.118;5.342;2023-03-08T15:45:28;8.50;99.90
16118;DHT22;8163;50.118;5.342;2023-03-08T15:47:56;8.50;99.90
16118;DHT22;8163;50.118;5.342;2023-03-08T15:50:24;8.50;99.90
16118;DHT22;8163;50.118;5.342;2023-03-08T15:52:52;8.50;99.90
16118;DHT22;8163;50.118;5.342;2023-03-08T15:55:21;8.60;99.90
16118;DHT22;8163;50.118;5.342;2023-03-08T15:57:49;8.70;99.90
16118;DHT22;8163;50.118;5.342;2023-03-08T16:00:19;8.80;99.90
16118;DHT22;8163;50.118;5.342;2023-03-08T16:02:46;8.80;99.90
16118;DHT22;8163;50.118;5.342;2023-03-08T16:05:14;8.80;99.90
16118;DHT22;8163;50.118;5.342;2023-03-08T16:07:44;8.80;99.90
16118;DHT22;8163;50.118;5.342;2023-03-08T16:10:13;8.80;99.90
16118;DHT22;8163;50.118;5.342;2023-03-08T16:12:40;8.70;99.90
16118;DHT22;8163;50.118;5.342;2023-03-08T16:15:08;8.70;99.90
16118;DHT22;8163;50.118;5.342;2023-03-08T16:17:37;8.70;99.90
16118;DHT22;8163;50.118;5.342;2023-03-08T16:20:05;8.70;99.90
16118;DHT22;8163;50.118;5.342;2023-03-08T16:22:32;8.70;99.90
16118;DHT22;8163;50.118;5.342;2023-03-08T16:25:00;8.70;99.90
16118;DHT22;8163;50.118;5.342;2023-03-08T16:27:28;8.70;99.90
16118;DHT22;8163;50.118;5.342;2023-03-08T16:29:55;8.70;99.90
16118;DHT22;8163;50.118;5.342;2023-03-08T16:32:22;8.70;99.90
16118;DHT22;8163;50.118;5.342;2023-03-08T16:34:55;8.70;99.90
16118;DHT22;8163;50.118;5.342;2023-03-08T16:37:22;8.70;99.90
16118;DHT22;8163;50.118;5.342;2023-03-08T16:39:50;8.70;99.90
16118;DHT22;8163;50.118;5.342;2023-03-08T16:42:18;8.70;99.90
16118;DHT22;8163;50.118;5.342;2023-03-08T16:44:48;8.70;99.90
16118;DHT22;8163;50.118;5.342;2023-03-08T16:47:16;8.70;99.90
16118;DHT22;8163;50.118;5.342;2023-03-08T16:49:44;8.70;99.90
16118;DHT22;8163;50.118;5.342;2023-03-08T16:52:12;8.60;99.90
16118;DHT22;8163;50.118;5.342;2023-03-08T16:54:40;8.60;99.90
16118;DHT22;8163;50.118;5.342;2023-03-08T16:57:10;8.50;99.90